createdAt,value
2024-02-21T00:03:33.706Z,100551.95
2024-02-21T00:13:07.540Z,100526.50
2024-02-21T00:22:41.318Z,100510.73
2024-02-21T00:32:17.006Z,100496.99
2024-02-21T00:41:49.031Z,100476.70
2024-02-21T00:51:22.809Z,100446.53
2024-02-21T01:00:57.762Z,100436.11
2024-02-21T01:10:30.155Z,100448.20
2024-02-21T01:20:03.976Z,100471.70
2024-02-21T01:29:38.090Z,100457.45
2024-02-21T01:39:11.907Z,100442.23
2024-02-21T01:48:46.023Z,100413.44
2024-02-21T01:58:20.195Z,100396.09
2024-02-21T02:07:55.599Z,100389.72
2024-02-21T02:17:27.925Z,100402.77
2024-02-21T02:27:02.844Z,100398.75
2024-02-21T02:36:40.662Z,100365.44
2024-02-21T02:46:09.080Z,100358.63
2024-02-21T02:55:44.610Z,100357.92
2024-02-21T03:05:17.007Z,100337.66
2024-02-21T03:14:50.663Z,100326.95
2024-02-21T03:24:24.476Z,100318.28
2024-02-21T03:33:58.377Z,100298.45
2024-02-21T03:43:32.382Z,100301.94
2024-02-21T03:53:07.817Z,100307.74
2024-02-21T04:02:40.233Z,100311.34
2024-02-21T04:12:14.487Z,100292.74
2024-02-21T04:21:48.637Z,100278.80
2024-02-21T04:31:23.418Z,100276.00
2024-02-21T04:40:55.769Z,100248.56
2024-02-21T04:50:31.469Z,100238.73
2024-02-21T05:00:03.492Z,100240.52
2024-02-21T05:09:36.776Z,100233.05
2024-02-21T05:19:10.412Z,100250.31
2024-02-21T05:28:44.146Z,100235.30
2024-02-21T05:38:19.734Z,100235.88
2024-02-21T05:47:51.757Z,100215.89
2024-02-21T05:57:25.066Z,100205.03
2024-02-21T06:06:58.558Z,100201.05
2024-02-21T06:16:32.088Z,100203.00
2024-02-21T06:26:06.258Z,100179.94
2024-02-21T06:35:39.623Z,100174.38
2024-02-21T06:45:13.055Z,100171.94
2024-02-21T06:54:46.409Z,100172.45
2024-02-21T07:04:21.778Z,100169.38
2024-02-21T07:13:55.230Z,100163.11
2024-02-21T07:23:29.827Z,100178.31
2024-02-21T07:33:01.213Z,100168.52
2024-02-21T07:42:33.840Z,100166.89
2024-02-21T07:52:05.909Z,100151.18
2024-02-21T08:01:39.866Z,100154.53
2024-02-21T08:11:21.738Z,100136.85
2024-02-21T08:20:46.579Z,100130.17
2024-02-21T08:30:20.594Z,100126.52
2024-02-21T08:39:54.520Z,100117.56
2024-02-21T08:59:04.418Z,100104.56
2024-02-21T09:00:06.672Z,100099.81
2024-02-21T09:09:41.797Z,100073.31
2024-02-21T09:10:45.937Z,100079.84
2024-02-21T09:11:48.139Z,100082.01
2024-02-21T09:12:50.540Z,100077.66
2024-02-21T09:13:53.068Z,100079.92
2024-02-21T09:14:55.420Z,100074.47
2024-02-21T09:15:58.627Z,100076.22
2024-02-21T09:17:00.483Z,100073.08
2024-02-21T09:18:02.759Z,100078.59
2024-02-21T09:27:35.231Z,100068.64
2024-02-21T09:28:37.814Z,100056.61
2024-02-21T09:29:40.295Z,100052.42
2024-02-21T09:30:42.633Z,100056.68
2024-02-21T09:31:45.085Z,100058.50
2024-02-21T09:32:47.488Z,100059.44
2024-02-21T09:33:52.630Z,100058.08
2024-02-21T09:34:55.338Z,100056.38
2024-02-21T09:35:57.176Z,100054.88
2024-02-21T09:36:59.605Z,100045.91
2024-02-21T09:38:02.069Z,100044.16
2024-02-21T09:39:04.355Z,100046.23
2024-02-21T09:40:08.333Z,100049.56
2024-02-21T09:41:12.235Z,100050.23
2024-02-21T09:42:17.082Z,100052.24
2024-02-21T09:43:20.310Z,100052.13
2024-02-21T09:44:22.541Z,100046.78
2024-02-21T09:45:24.933Z,100049.50
2024-02-21T09:54:58.626Z,100030.11
2024-02-21T09:56:02.010Z,100025.61
2024-02-21T09:57:05.934Z,100027.22
2024-02-21T09:58:12.183Z,100022.68
2024-02-21T09:59:16.154Z,100019.95
2024-02-21T10:00:20.105Z,100018.36
2024-02-21T10:01:29.135Z,100019.00
2024-02-21T10:02:29.019Z,100013.98
2024-02-21T10:03:30.985Z,100020.04
2024-02-21T10:04:34.536Z,100019.23
2024-02-21T10:05:36.643Z,100018.94
2024-02-21T10:06:39.177Z,100008.74
2024-02-21T10:07:41.886Z,100014.84
2024-02-21T10:08:44.417Z,100013.66
2024-02-21T10:09:47.674Z,100012.00
2024-02-21T10:10:51.870Z,100009.63
2024-02-21T10:11:54.278Z,100012.77
2024-02-21T10:12:58.380Z,100011.47
2024-02-21T10:14:00.914Z,100011.55
2024-02-21T10:15:03.520Z,100013.97
2024-02-21T10:16:10.227Z,100006.17
2024-02-21T10:17:12.466Z,100004.56
2024-02-21T10:18:17.745Z,100001.42
2024-02-21T10:19:20.093Z,100004.98
2024-02-21T10:20:24.929Z,100011.63
2024-02-21T10:21:28.266Z,100005.45
2024-02-21T10:22:31.410Z,100000.92
2024-02-21T10:23:34.326Z,99998.91
2024-02-21T10:24:36.737Z,99993.70
2024-02-21T10:25:40.049Z,99991.55
2024-02-21T10:26:43.356Z,99994.01
2024-02-21T10:27:46.797Z,99990.02
2024-02-21T10:28:50.158Z,99987.45
2024-02-21T10:29:53.783Z,99989.48
2024-02-21T10:39:21.986Z,99970.92
2024-02-21T10:40:24.624Z,99973.87
2024-02-21T10:41:27.268Z,99969.84
2024-02-21T10:42:30.578Z,99969.86
2024-02-21T10:43:33.862Z,99973.16
2024-02-21T10:44:37.815Z,99968.44
2024-02-21T10:45:39.913Z,99970.88
2024-02-21T10:46:43.332Z,99968.55
2024-02-21T10:47:45.859Z,99969.20
2024-02-21T10:48:50.754Z,99961.05
2024-02-21T10:49:56.906Z,99958.81
2024-02-21T10:51:02.664Z,99963.19
2024-02-21T10:52:03.636Z,99950.23
2024-02-21T10:53:09.982Z,99955.41
2024-02-21T10:54:15.968Z,99957.23
2024-02-21T10:55:19.214Z,99960.09
2024-02-21T10:56:22.006Z,99959.13
2024-02-21T10:57:24.401Z,99957.63
2024-02-21T10:58:27.670Z,99957.27
2024-02-21T10:59:30.184Z,99951.41
2024-02-21T11:00:32.441Z,99945.66
2024-02-21T11:01:38.768Z,99945.17
2024-02-21T11:02:41.860Z,99945.34
2024-02-21T11:03:43.934Z,99944.41
2024-02-21T11:04:47.407Z,99950.84
2024-02-21T11:05:50.650Z,99944.45
2024-02-21T11:06:54.783Z,99936.73
2024-02-21T11:07:59.596Z,99936.61
2024-02-21T11:09:01.503Z,99934.24
2024-02-21T11:10:09.462Z,99929.55
2024-02-21T11:19:36.562Z,99919.05
2024-02-21T11:20:39.968Z,99918.87
2024-02-21T11:21:42.047Z,99921.30
2024-02-21T11:22:44.596Z,99913.78
2024-02-21T11:23:48.060Z,99911.28
2024-02-21T11:24:52.949Z,99911.28
2024-02-21T11:25:57.802Z,99904.58
2024-02-21T11:27:02.500Z,99900.68
2024-02-21T11:28:04.826Z,99898.30
2024-02-21T11:29:08.061Z,99897.20
2024-02-21T11:30:11.313Z,99900.77
2024-02-21T11:31:14.716Z,99897.56
2024-02-21T11:32:18.117Z,99893.16
2024-02-21T11:33:26.119Z,99890.30
2024-02-21T11:34:28.152Z,99892.13
2024-02-21T11:35:31.482Z,99889.18
2024-02-21T11:36:33.764Z,99890.06
2024-02-21T11:37:37.189Z,99889.34
2024-02-21T11:38:42.098Z,99880.23
2024-02-21T11:39:46.495Z,99883.64
2024-02-21T11:40:48.637Z,99880.77
2024-02-21T11:41:55.327Z,99874.47
2024-02-21T11:43:01.310Z,99873.60
2024-02-21T11:44:06.095Z,99870.92
2024-02-21T11:45:08.271Z,99873.80
2024-02-21T11:46:11.575Z,99874.80
2024-02-21T11:47:13.866Z,99872.20
2024-02-21T11:48:19.006Z,99874.34
2024-02-21T11:49:21.875Z,99873.11
2024-02-21T11:50:24.189Z,99868.42
2024-02-21T11:51:27.657Z,99862.20
2024-02-21T11:52:30.822Z,99869.41
2024-02-21T11:53:38.435Z,99866.84
2024-02-21T11:54:40.515Z,99864.70
2024-02-21T11:55:45.375Z,99864.13
2024-02-21T11:56:49.271Z,99853.73
2024-02-21T11:57:51.365Z,99851.38
2024-02-21T11:58:55.303Z,99848.41
2024-02-21T11:59:58.664Z,99843.82
2024-02-21T12:01:01.228Z,99845.06
2024-02-21T12:02:03.461Z,99844.72
2024-02-21T12:03:07.366Z,99843.13
2024-02-21T12:04:09.611Z,99839.47
2024-02-21T12:05:13.284Z,99832.96
2024-02-21T12:06:15.444Z,99824.53
2024-02-21T12:07:19.563Z,99822.59
2024-02-21T12:08:21.685Z,99822.29
2024-02-21T12:09:24.018Z,99819.45
2024-02-21T12:10:26.440Z,99812.98
2024-02-21T12:11:28.970Z,99806.81
2024-02-21T12:12:31.263Z,99808.49
2024-02-21T12:13:33.620Z,99798.96
2024-02-21T12:14:38.625Z,99802.69
2024-02-21T12:15:41.883Z,99790.78
2024-02-21T12:16:44.139Z,99794.70
2024-02-21T12:17:48.235Z,99791.69
2024-02-21T12:18:52.246Z,99791.62
2024-02-21T12:19:54.660Z,99791.65
2024-02-21T12:20:58.469Z,99792.29
2024-02-21T12:22:01.868Z,99801.01
2024-02-21T12:23:06.811Z,99790.48
2024-02-21T12:24:09.879Z,99784.52
2024-02-21T12:25:12.178Z,99781.97
2024-02-21T12:26:14.764Z,99777.68
2024-02-21T12:27:18.051Z,99776.30
2024-02-21T12:28:21.383Z,99767.11
2024-02-21T12:29:23.618Z,99770.17
2024-02-21T12:30:26.000Z,99773.92
2024-02-21T12:31:30.077Z,99769.55
2024-02-21T12:32:32.435Z,99765.92
2024-02-21T12:33:34.870Z,99770.05
2024-02-21T12:34:43.745Z,99767.33
2024-02-21T12:35:43.289Z,99755.72
2024-02-21T12:45:11.720Z,99729.64
2024-02-21T12:46:14.037Z,99732.09
2024-02-21T12:47:18.116Z,99723.84
2024-02-21T12:48:20.428Z,99719.77
2024-02-21T12:49:23.122Z,99725.91
2024-02-21T12:50:25.312Z,99724.81
2024-02-21T12:51:29.322Z,99720.59
2024-02-21T12:52:33.344Z,99717.98
2024-02-21T12:53:35.591Z,99718.66
2024-02-21T12:54:38.823Z,99730.59
2024-02-21T12:55:41.121Z,99731.14
2024-02-21T12:56:43.508Z,99729.39
2024-02-21T12:57:47.534Z,99720.06
2024-02-21T12:58:51.436Z,99719.84
2024-02-21T12:59:53.612Z,99721.18
2024-02-21T13:00:57.646Z,99705.31
2024-02-21T13:02:01.639Z,99703.98
2024-02-21T13:03:03.848Z,99695.39
2024-02-21T13:04:08.922Z,99690.05
2024-02-21T13:05:12.060Z,99694.52
2024-02-21T13:06:15.925Z,99687.03
2024-02-21T13:07:19.209Z,99685.09
2024-02-21T13:08:21.343Z,99693.68
2024-02-21T13:09:25.235Z,99691.03
2024-02-21T13:10:27.642Z,99681.57
2024-02-21T13:11:30.996Z,99688.58
2024-02-21T13:12:35.863Z,99683.11
2024-02-21T13:13:39.180Z,99687.91
2024-02-21T13:14:41.414Z,99679.39
2024-02-21T13:15:45.417Z,99676.94
2024-02-21T13:16:49.300Z,99669.76
2024-02-21T13:17:53.216Z,99667.47
2024-02-21T13:18:55.531Z,99658.08
2024-02-21T13:19:58.846Z,99666.47
2024-02-21T13:21:01.001Z,99659.52
2024-02-21T13:22:03.800Z,99662.51
2024-02-21T13:23:05.902Z,99653.31
2024-02-21T13:24:08.279Z,99648.24
2024-02-21T13:25:11.794Z,99652.57
2024-02-21T13:26:15.026Z,99654.38
2024-02-21T13:27:18.629Z,99648.47
2024-02-21T13:28:20.864Z,99644.84
2024-02-21T13:29:23.525Z,99636.82
2024-02-21T13:30:26.908Z,99636.05
2024-02-21T13:31:30.224Z,99638.49
2024-02-21T13:32:32.667Z,99630.44
2024-02-21T13:33:37.571Z,99627.05
2024-02-21T13:34:39.856Z,99629.69
2024-02-21T13:35:42.193Z,99629.69
2024-02-21T13:36:44.618Z,99623.57
2024-02-21T13:37:49.640Z,99611.98
2024-02-21T13:38:51.808Z,99617.22
2024-02-21T13:39:55.194Z,99615.27
2024-02-21T13:40:57.548Z,99613.99
2024-02-21T13:42:00.840Z,99614.26
2024-02-21T13:43:08.818Z,99616.23
2024-02-21T13:44:09.090Z,99605.19
2024-02-21T13:45:11.460Z,99607.87
2024-02-21T13:46:13.759Z,99607.77
2024-02-21T13:47:18.878Z,99596.08
2024-02-21T13:48:21.052Z,99594.88
2024-02-21T13:49:26.093Z,99592.48
2024-02-21T13:50:30.773Z,99588.63
2024-02-21T13:51:39.513Z,99584.45
2024-02-21T13:52:41.596Z,99583.23
2024-02-21T13:53:43.970Z,99582.05
2024-02-21T13:54:46.400Z,99583.46
2024-02-21T13:55:49.010Z,99575.48
2024-02-21T13:56:52.178Z,99579.53
2024-02-21T13:57:55.529Z,99576.80
2024-02-21T13:58:58.837Z,99575.98
2024-02-21T14:00:01.162Z,99575.22
2024-02-21T14:01:03.551Z,99570.66
2024-02-21T14:02:06.974Z,99566.59
2024-02-21T14:03:09.142Z,99569.24
2024-02-21T14:04:13.156Z,99566.47
2024-02-21T14:05:16.593Z,99567.41
2024-02-21T14:06:18.786Z,99554.33
2024-02-21T14:07:22.165Z,99558.59
2024-02-21T14:08:24.306Z,99567.39
2024-02-21T14:09:26.632Z,99566.32
2024-02-21T14:10:30.061Z,99558.95
2024-02-21T14:11:32.534Z,99555.62
2024-02-21T14:12:35.896Z,99551.09
2024-02-21T14:13:40.670Z,99550.80
2024-02-21T14:14:44.462Z,99543.23
2024-02-21T14:15:47.818Z,99543.61
2024-02-21T14:16:50.128Z,99526.66
2024-02-21T14:17:52.478Z,99516.73
2024-02-21T14:18:57.454Z,99517.33
2024-02-21T14:20:00.699Z,99514.28
2024-02-21T14:21:06.759Z,99511.23
2024-02-21T14:22:09.692Z,99510.15
2024-02-21T14:23:12.200Z,99510.98
2024-02-21T14:24:14.334Z,99513.94
2024-02-21T14:25:18.047Z,99514.09
2024-02-21T14:26:21.260Z,99520.99
2024-02-21T14:27:23.463Z,99516.16
2024-02-21T14:28:25.955Z,99516.53
2024-02-21T14:29:29.377Z,99516.50
2024-02-21T14:30:33.379Z,99516.01
2024-02-21T14:31:35.737Z,99511.17
2024-02-21T14:32:39.233Z,99514.28
2024-02-21T14:33:41.430Z,99506.86
2024-02-21T14:34:44.602Z,99510.92
2024-02-21T14:35:48.472Z,99513.80
2024-02-21T14:36:50.872Z,99508.72
2024-02-21T14:37:54.296Z,99514.66
2024-02-21T14:38:58.083Z,99506.49
2024-02-21T14:40:02.912Z,99510.30
2024-02-21T14:41:06.237Z,99501.02
2024-02-21T14:42:08.376Z,99495.46
2024-02-21T14:43:11.783Z,99496.97
2024-02-21T14:44:15.122Z,99482.91
2024-02-21T14:45:17.428Z,99458.84
2024-02-21T14:46:21.538Z,99461.34
2024-02-21T14:47:23.519Z,99471.08
2024-02-21T14:48:26.106Z,99475.88
2024-02-21T14:49:29.318Z,99474.47
2024-02-21T14:50:31.656Z,99468.88
2024-02-21T14:51:33.899Z,99485.53
2024-02-21T14:52:37.641Z,99483.22
2024-02-21T14:53:39.678Z,99472.80
2024-02-21T14:54:48.598Z,99467.11
2024-02-21T14:55:50.747Z,99458.02
2024-02-21T14:56:54.000Z,99457.94
2024-02-21T14:58:00.157Z,99460.03
2024-02-21T14:59:05.537Z,99456.30
2024-02-21T15:00:08.559Z,99459.30
2024-02-21T15:01:10.641Z,99454.02
2024-02-21T15:02:14.119Z,99450.30
2024-02-21T15:03:16.299Z,99445.34
2024-02-21T15:04:19.824Z,99450.62
2024-02-21T15:05:23.895Z,99453.70
2024-02-21T15:06:27.036Z,99451.31
2024-02-21T15:07:33.069Z,99442.58
2024-02-21T15:08:36.106Z,99441.67
2024-02-21T15:09:38.485Z,99435.03
2024-02-21T15:10:40.816Z,99425.59
2024-02-21T15:11:43.102Z,99417.91
2024-02-21T15:12:46.447Z,99415.39
2024-02-21T15:13:49.884Z,99419.40
2024-02-21T15:14:52.048Z,99413.98
2024-02-21T15:15:57.042Z,99411.28
2024-02-21T15:16:59.159Z,99415.34
2024-02-21T15:18:02.513Z,99413.95
2024-02-21T15:19:09.678Z,99414.02
2024-02-21T15:20:15.591Z,99408.87
2024-02-21T15:21:20.253Z,99395.19
2024-02-21T15:22:24.447Z,99391.58
2024-02-21T15:23:27.271Z,99382.02
2024-02-21T15:24:29.658Z,99379.64
2024-02-21T15:25:32.952Z,99384.37
2024-02-21T15:26:36.782Z,99386.83
2024-02-21T15:27:41.748Z,99385.62
2024-02-21T15:28:43.854Z,99374.00
2024-02-21T15:29:47.287Z,99383.77
2024-02-21T15:30:50.548Z,99383.50
2024-02-21T15:31:52.932Z,99376.23
2024-02-21T15:32:55.186Z,99379.34
2024-02-21T15:33:58.738Z,99376.69
2024-02-21T15:35:01.142Z,99366.39
2024-02-21T15:36:03.321Z,99373.87
2024-02-21T15:37:05.570Z,99379.70
2024-02-21T15:38:09.672Z,99383.28
2024-02-21T15:39:12.935Z,99381.48
2024-02-21T15:40:15.220Z,99379.70
2024-02-21T15:41:17.575Z,99376.10
2024-02-21T15:42:22.592Z,99372.52
2024-02-21T15:43:26.374Z,99362.65
2024-02-21T15:44:28.807Z,99365.08
2024-02-21T15:45:34.929Z,99369.98
2024-02-21T15:46:37.139Z,99367.63
2024-02-21T15:47:39.516Z,99365.56
2024-02-21T15:48:41.745Z,99358.03
2024-02-21T15:49:44.187Z,99364.75
2024-02-21T15:50:46.557Z,99363.61
2024-02-21T15:51:51.516Z,99359.64
2024-02-21T16:01:22.233Z,99333.23
2024-02-21T16:02:26.435Z,99318.98
2024-02-21T16:03:28.483Z,99317.27
2024-02-21T16:04:32.058Z,99317.20
2024-02-21T16:05:35.676Z,99325.10
2024-02-21T16:06:39.595Z,99324.22
2024-02-21T16:07:41.798Z,99321.55
2024-02-21T16:08:44.141Z,99321.23
2024-02-21T16:09:46.435Z,99321.02
2024-02-21T16:10:48.932Z,99317.70
2024-02-21T16:11:51.267Z,99312.88
2024-02-21T16:12:56.111Z,99312.38
2024-02-21T16:13:58.350Z,99304.36
2024-02-21T16:15:00.664Z,99300.28
2024-02-21T16:16:04.074Z,99303.17
2024-02-21T16:17:06.430Z,99302.09
2024-02-21T16:18:09.899Z,99303.00
2024-02-21T16:19:13.106Z,99302.84
2024-02-21T16:20:16.935Z,99298.89
2024-02-21T16:29:47.477Z,99291.92
2024-02-21T16:39:18.373Z,99263.09
2024-02-21T16:48:47.079Z,99251.66
2024-02-21T16:58:20.649Z,99242.64
2024-02-21T17:07:54.440Z,99231.54
2024-02-21T17:17:27.953Z,99212.38
2024-02-21T17:27:03.958Z,99196.45
2024-02-21T17:36:36.443Z,99186.66
2024-02-21T17:46:09.022Z,99171.78
2024-02-21T17:55:44.768Z,99174.16
2024-02-21T18:05:16.534Z,99145.88
2024-02-21T18:06:21.066Z,99153.66
2024-02-21T18:15:53.749Z,99145.38
2024-02-21T18:25:25.636Z,99155.48
2024-02-21T18:34:59.176Z,99138.56
2024-02-21T18:44:32.898Z,99117.42
2024-02-21T18:54:06.547Z,99110.67
2024-02-21T19:03:40.748Z,99094.16
2024-02-21T19:13:16.680Z,99076.56
2024-02-21T19:22:50.089Z,99081.05
2024-02-21T19:32:22.936Z,99035.41
2024-02-21T19:41:56.987Z,99016.58
2024-02-21T19:51:31.780Z,98994.91
2024-02-21T20:01:07.267Z,98978.34
2024-02-21T20:10:38.835Z,98938.16
2024-02-21T20:20:12.948Z,98931.30
2024-02-21T20:29:46.454Z,98897.19
2024-02-21T20:39:20.356Z,98872.58
2024-02-21T20:48:53.993Z,98878.30
2024-02-21T20:58:27.437Z,98859.47
2024-02-21T21:08:00.960Z,98841.12
2024-02-21T21:17:34.279Z,98841.48
2024-02-21T21:27:08.393Z,98813.19
2024-02-21T21:36:41.634Z,98795.23
2024-02-21T21:46:15.892Z,98792.41
2024-02-21T21:55:49.661Z,98774.38
2024-02-21T22:05:24.120Z,98759.69
2024-02-21T22:14:57.676Z,98751.48
2024-02-21T22:24:31.883Z,98723.51
2024-02-21T22:34:05.562Z,98710.45
2024-02-21T22:43:39.368Z,98692.45
2024-02-21T22:53:13.561Z,98671.31
2024-02-21T23:02:49.383Z,98655.09
2024-02-21T23:12:23.158Z,98631.80
2024-02-21T23:21:58.397Z,98628.31
2024-02-21T23:31:29.632Z,98608.22
2024-02-21T23:41:03.357Z,98589.03
2024-02-21T23:50:37.496Z,98561.41
